sensor_id;sensor_type;location;lat;lon;timestamp;P1;durP1;ratioP1;P2;durP2;ratioP2
63807;SDS011;49961;43.970;22.868;2022-12-29T00:00:37;27.67;;;21.30;;
63807;SDS011;49961;43.970;22.868;2022-12-29T00:01:37;28.40;;;20.77;;
63807;SDS011;49961;43.970;22.868;2022-12-29T00:02:38;26.20;;;19.97;;
63807;SDS011;49961;43.970;22.868;2022-12-29T00:03:38;28.47;;;20.20;;
63807;SDS011;49961;43.970;22.868;2022-12-29T00:04:39;26.47;;;21.07;;
63807;SDS011;49961;43.970;22.868;2022-12-29T00:05:39;30.13;;;21.37;;
63807;SDS011;49961;43.970;22.868;2022-12-29T00:06:40;29.60;;;20.03;;
63807;SDS011;49961;43.970;22.868;2022-12-29T00:07:40;30.13;;;19.63;;
63807;SDS011;49961;43.970;22.868;2022-12-29T00:08:41;26.73;;;20.53;;
63807;SDS011;49961;43.970;22.868;2022-12-29T00:09:41;25.03;;;19.90;;
63807;SDS011;49961;43.970;22.868;2022-12-29T00:10:42;29.73;;;20.10;;
63807;SDS011;49961;43.970;22.868;2022-12-29T00:11:42;30.20;;;22.20;;
63807;SDS011;49961;43.970;22.868;2022-12-29T00:12:43;31.27;;;24.57;;
63807;SDS011;49961;43.970;22.868;2022-12-29T00:14:02;24.58;;;18.83;;
63807;SDS011;49961;43.970;22.868;2022-12-29T00:15:21;25.85;;;18.35;;
63807;SDS011;49961;43.970;22.868;2022-12-29T00:16:43;22.08;;;16.27;;
63807;SDS011;49961;43.970;22.868;2022-12-29T00:17:45;22.65;;;16.83;;
63807;SDS011;49961;43.970;22.868;2022-12-29T00:18:45;21.73;;;16.10;;
63807;SDS011;49961;43.970;22.868;2022-12-29T00:19:46;19.23;;;15.20;;
63807;SDS011;49961;43.970;22.868;2022-12-29T00:21:04;21.80;;;16.98;;
63807;SDS011;49961;43.970;22.868;2022-12-29T00:22:23;23.27;;;17.38;;
63807;SDS011;49961;43.970;22.868;2022-12-29T00:23:43;26.02;;;20.25;;
63807;SDS011;49961;43.970;22.868;2022-12-29T00:25:02;26.63;;;20.25;;
63807;SDS011;49961;43.970;22.868;2022-12-29T00:26:22;24.92;;;18.83;;
63807;SDS011;49961;43.970;22.868;2022-12-29T00:27:41;25.17;;;19.17;;
63807;SDS011;49961;43.970;22.868;2022-12-29T00:29:00;27.33;;;18.60;;
63807;SDS011;49961;43.970;22.868;2022-12-29T00:30:20;22.42;;;17.33;;
63807;SDS011;49961;43.970;22.868;2022-12-29T00:31:41;23.23;;;17.45;;
63807;SDS011;49961;43.970;22.868;2022-12-29T00:33:00;28.73;;;17.90;;
63807;SDS011;49961;43.970;22.868;2022-12-29T00:34:19;24.50;;;17.38;;
63807;SDS011;49961;43.970;22.868;2022-12-29T00:35:38;24.42;;;18.05;;
63807;SDS011;49961;43.970;22.868;2022-12-29T00:36:43;22.52;;;17.05;;
63807;SDS011;49961;43.970;22.868;2022-12-29T00:37:45;22.35;;;17.55;;
63807;SDS011;49961;43.970;22.868;2022-12-29T00:39:06;23.45;;;16.88;;
63807;SDS011;49961;43.970;22.868;2022-12-29T00:40:28;20.60;;;16.83;;
63807;SDS011;49961;43.970;22.868;2022-12-29T00:41:48;22.65;;;15.70;;
63807;SDS011;49961;43.970;22.868;2022-12-29T00:43:07;23.83;;;16.65;;
63807;SDS011;49961;43.970;22.868;2022-12-29T00:44:25;21.95;;;15.85;;
63807;SDS011;49961;43.970;22.868;2022-12-29T00:45:26;25.33;;;17.30;;
63807;SDS011;49961;43.970;22.868;2022-12-29T00:46:26;23.33;;;16.80;;
63807;SDS011;49961;43.970;22.868;2022-12-29T00:47:27;23.20;;;16.87;;
63807;SDS011;49961;43.970;22.868;2022-12-29T00:48:27;24.77;;;17.73;;
63807;SDS011;49961;43.970;22.868;2022-12-29T00:49:46;25.10;;;17.13;;
63807;SDS011;49961;43.970;22.868;2022-12-29T00:50:47;23.83;;;17.60;;
63807;SDS011;49961;43.970;22.868;2022-12-29T00:51:47;26.53;;;17.90;;
63807;SDS011;49961;43.970;22.868;2022-12-29T00:52:48;21.92;;;17.10;;
63807;SDS011;49961;43.970;22.868;2022-12-29T00:53:49;25.70;;;18.07;;
63807;SDS011;49961;43.970;22.868;2022-12-29T00:54:49;23.67;;;17.93;;
63807;SDS011;49961;43.970;22.868;2022-12-29T00:55:50;22.70;;;18.33;;
63807;SDS011;49961;43.970;22.868;2022-12-29T00:56:50;25.87;;;18.50;;
63807;SDS011;49961;43.970;22.868;2022-12-29T00:57:52;26.35;;;19.67;;
63807;SDS011;49961;43.970;22.868;2022-12-29T00:58:52;25.97;;;19.43;;
63807;SDS011;49961;43.970;22.868;2022-12-29T00:59:53;26.83;;;19.03;;
63807;SDS011;49961;43.970;22.868;2022-12-29T01:01:00;27.70;;;17.87;;
63807;SDS011;49961;43.970;22.868;2022-12-29T01:02:04;25.48;;;17.67;;
63807;SDS011;49961;43.970;22.868;2022-12-29T01:03:05;24.73;;;18.77;;
63807;SDS011;49961;43.970;22.868;2022-12-29T01:04:06;26.80;;;19.73;;
63807;SDS011;49961;43.970;22.868;2022-12-29T01:05:07;24.75;;;19.27;;
63807;SDS011;49961;43.970;22.868;2022-12-29T01:06:09;26.80;;;18.43;;
63807;SDS011;49961;43.970;22.868;2022-12-29T01:07:10;29.08;;;18.73;;
63807;SDS011;49961;43.970;22.868;2022-12-29T01:08:11;24.03;;;19.03;;
63807;SDS011;49961;43.970;22.868;2022-12-29T01:09:11;23.50;;;18.10;;
63807;SDS011;49961;43.970;22.868;2022-12-29T01:10:30;27.02;;;17.35;;
63807;SDS011;49961;43.970;22.868;2022-12-29T01:11:30;28.77;;;17.00;;
63807;SDS011;49961;43.970;22.868;2022-12-29T01:12:32;20.50;;;16.20;;
63807;SDS011;49961;43.970;22.868;2022-12-29T01:13:43;22.20;;;16.33;;
63807;SDS011;49961;43.970;22.868;2022-12-29T01:14:44;25.70;;;18.53;;
63807;SDS011;49961;43.970;22.868;2022-12-29T01:15:49;25.03;;;18.60;;
63807;SDS011;49961;43.970;22.868;2022-12-29T01:16:51;25.70;;;18.42;;
63807;SDS011;49961;43.970;22.868;2022-12-29T01:17:51;23.17;;;18.80;;
63807;SDS011;49961;43.970;22.868;2022-12-29T01:18:52;26.30;;;19.07;;
63807;SDS011;49961;43.970;22.868;2022-12-29T01:19:52;27.13;;;17.93;;
63807;SDS011;49961;43.970;22.868;2022-12-29T01:20:59;28.10;;;17.20;;
63807;SDS011;49961;43.970;22.868;2022-12-29T01:22:01;26.00;;;17.35;;
63807;SDS011;49961;43.970;22.868;2022-12-29T01:23:02;18.13;;;13.13;;
63807;SDS011;49961;43.970;22.868;2022-12-29T01:24:02;18.10;;;12.77;;
63807;SDS011;49961;43.970;22.868;2022-12-29T01:25:03;15.23;;;12.37;;
63807;SDS011;49961;43.970;22.868;2022-12-29T01:26:08;16.67;;;11.68;;
63807;SDS011;49961;43.970;22.868;2022-12-29T01:27:10;19.98;;;12.20;;
63807;SDS011;49961;43.970;22.868;2022-12-29T01:28:10;18.77;;;12.10;;
63807;SDS011;49961;43.970;22.868;2022-12-29T01:29:11;19.73;;;13.50;;
63807;SDS011;49961;43.970;22.868;2022-12-29T01:30:12;18.93;;;14.30;;
63807;SDS011;49961;43.970;22.868;2022-12-29T01:31:13;20.70;;;14.50;;
63807;SDS011;49961;43.970;22.868;2022-12-29T01:32:14;21.80;;;13.95;;
63807;SDS011;49961;43.970;22.868;2022-12-29T01:33:15;17.93;;;12.77;;
63807;SDS011;49961;43.970;22.868;2022-12-29T01:34:15;17.70;;;13.10;;
63807;SDS011;49961;43.970;22.868;2022-12-29T01:35:16;16.33;;;12.50;;
63807;SDS011;49961;43.970;22.868;2022-12-29T01:36:16;17.80;;;13.17;;
63807;SDS011;49961;43.970;22.868;2022-12-29T01:37:17;18.23;;;12.77;;
63807;SDS011;49961;43.970;22.868;2022-12-29T01:38:18;16.27;;;12.70;;
63807;SDS011;49961;43.970;22.868;2022-12-29T01:39:18;15.73;;;12.73;;
63807;SDS011;49961;43.970;22.868;2022-12-29T01:40:19;16.90;;;12.63;;
63807;SDS011;49961;43.970;22.868;2022-12-29T01:41:19;17.57;;;12.97;;
63807;SDS011;49961;43.970;22.868;2022-12-29T01:42:22;17.03;;;12.97;;
63807;SDS011;49961;43.970;22.868;2022-12-29T01:45:10;19.42;;;13.50;;
63807;SDS011;49961;43.970;22.868;2022-12-29T01:48:38;21.65;;;14.88;;
63807;SDS011;49961;43.970;22.868;2022-12-29T01:49:38;24.10;;;14.73;;
63807;SDS011;49961;43.970;22.868;2022-12-29T01:50:40;18.43;;;13.63;;
63807;SDS011;49961;43.970;22.868;2022-12-29T01:51:45;20.40;;;13.75;;
63807;SDS011;49961;43.970;22.868;2022-12-29T01:52:57;19.25;;;13.57;;
63807;SDS011;49961;43.970;22.868;2022-12-29T01:54:05;18.25;;;14.02;;
63807;SDS011;49961;43.970;22.868;2022-12-29T01:55:11;18.65;;;13.80;;
63807;SDS011;49961;43.970;22.868;2022-12-29T01:56:13;19.20;;;13.57;;
63807;SDS011;49961;43.970;22.868;2022-12-29T01:57:19;20.40;;;14.13;;
63807;SDS011;49961;43.970;22.868;2022-12-29T01:58:24;18.20;;;13.77;;
63807;SDS011;49961;43.970;22.868;2022-12-29T01:59:31;19.63;;;13.90;;
63807;SDS011;49961;43.970;22.868;2022-12-29T02:00:38;23.05;;;13.95;;
63807;SDS011;49961;43.970;22.868;2022-12-29T02:01:39;21.03;;;14.47;;
63807;SDS011;49961;43.970;22.868;2022-12-29T02:02:43;18.93;;;13.70;;
63807;SDS011;49961;43.970;22.868;2022-12-29T02:03:47;18.45;;;12.80;;
63807;SDS011;49961;43.970;22.868;2022-12-29T02:04:48;19.42;;;12.45;;
63807;SDS011;49961;43.970;22.868;2022-12-29T02:05:54;17.57;;;12.63;;
63807;SDS011;49961;43.970;22.868;2022-12-29T02:07:00;21.60;;;12.93;;
63807;SDS011;49961;43.970;22.868;2022-12-29T02:08:05;17.42;;;13.20;;
63807;SDS011;49961;43.970;22.868;2022-12-29T02:09:05;16.13;;;12.60;;
63807;SDS011;49961;43.970;22.868;2022-12-29T02:10:06;17.50;;;12.90;;
63807;SDS011;49961;43.970;22.868;2022-12-29T02:11:07;16.53;;;12.80;;
63807;SDS011;49961;43.970;22.868;2022-12-29T02:12:07;18.07;;;12.83;;
63807;SDS011;49961;43.970;22.868;2022-12-29T02:13:08;19.43;;;13.73;;
63807;SDS011;49961;43.970;22.868;2022-12-29T02:14:12;18.43;;;13.20;;
63807;SDS011;49961;43.970;22.868;2022-12-29T02:15:13;17.85;;;12.85;;
63807;SDS011;49961;43.970;22.868;2022-12-29T02:18:15;22.20;;;13.68;;
63807;SDS011;49961;43.970;22.868;2022-12-29T02:29:13;20.35;;;12.30;;
63807;SDS011;49961;43.970;22.868;2022-12-29T02:31:51;20.75;;;12.25;;
63807;SDS011;49961;43.970;22.868;2022-12-29T02:33:09;16.10;;;12.13;;
63807;SDS011;49961;43.970;22.868;2022-12-29T02:35:46;20.65;;;12.45;;
63807;SDS011;49961;43.970;22.868;2022-12-29T02:37:15;17.30;;;12.38;;
63807;SDS011;49961;43.970;22.868;2022-12-29T02:42:38;23.50;;;12.95;;
63807;SDS011;49961;43.970;22.868;2022-12-29T02:44:01;17.85;;;12.40;;
63807;SDS011;49961;43.970;22.868;2022-12-29T02:45:13;17.80;;;12.32;;
63807;SDS011;49961;43.970;22.868;2022-12-29T02:46:42;17.35;;;12.05;;
63807;SDS011;49961;43.970;22.868;2022-12-29T02:49:15;15.40;;;11.57;;
63807;SDS011;49961;43.970;22.868;2022-12-29T02:50:36;17.25;;;11.27;;
63807;SDS011;49961;43.970;22.868;2022-12-29T02:52:45;18.77;;;11.82;;
63807;SDS011;49961;43.970;22.868;2022-12-29T02:53:56;16.75;;;11.30;;
63807;SDS011;49961;43.970;22.868;2022-12-29T02:55:16;16.60;;;11.85;;
63807;SDS011;49961;43.970;22.868;2022-12-29T02:56:16;15.70;;;11.27;;
63807;SDS011;49961;43.970;22.868;2022-12-29T02:58:21;19.98;;;11.63;;
63807;SDS011;49961;43.970;22.868;2022-12-29T02:59:23;16.77;;;12.38;;
63807;SDS011;49961;43.970;22.868;2022-12-29T03:00:23;17.60;;;11.47;;
63807;SDS011;49961;43.970;22.868;2022-12-29T03:01:37;14.90;;;10.97;;
63807;SDS011;49961;43.970;22.868;2022-12-29T03:03:11;14.75;;;11.15;;
63807;SDS011;49961;43.970;22.868;2022-12-29T03:05:25;20.15;;;11.35;;
63807;SDS011;49961;43.970;22.868;2022-12-29T03:09:49;15.60;;;11.05;;
63807;SDS011;49961;43.970;22.868;2022-12-29T03:11:01;17.55;;;11.43;;
63807;SDS011;49961;43.970;22.868;2022-12-29T03:14:03;15.70;;;10.88;;
63807;SDS011;49961;43.970;22.868;2022-12-29T03:15:31;15.00;;;10.20;;
63807;SDS011;49961;43.970;22.868;2022-12-29T03:17:00;14.18;;;10.63;;
63807;SDS011;49961;43.970;22.868;2022-12-29T03:18:10;15.85;;;10.50;;
63807;SDS011;49961;43.970;22.868;2022-12-29T03:19:46;17.17;;;10.95;;
63807;SDS011;49961;43.970;22.868;2022-12-29T03:20:58;15.38;;;10.63;;
63807;SDS011;49961;43.970;22.868;2022-12-29T03:22:04;14.23;;;10.40;;
63807;SDS011;49961;43.970;22.868;2022-12-29T03:23:26;14.95;;;10.43;;
63807;SDS011;49961;43.970;22.868;2022-12-29T03:24:29;18.75;;;10.85;;
63807;SDS011;49961;43.970;22.868;2022-12-29T03:25:42;13.18;;;9.90;;
63807;SDS011;49961;43.970;22.868;2022-12-29T03:26:47;14.88;;;10.75;;
63807;SDS011;49961;43.970;22.868;2022-12-29T03:27:57;18.13;;;10.80;;
63807;SDS011;49961;43.970;22.868;2022-12-29T03:29:01;14.30;;;10.88;;
63807;SDS011;49961;43.970;22.868;2022-12-29T03:30:03;13.97;;;11.07;;
63807;SDS011;49961;43.970;22.868;2022-12-29T03:31:06;15.90;;;10.45;;
63807;SDS011;49961;43.970;22.868;2022-12-29T03:32:08;15.68;;;11.65;;
63807;SDS011;49961;43.970;22.868;2022-12-29T03:33:13;14.98;;;10.45;;
63807;SDS011;49961;43.970;22.868;2022-12-29T03:34:17;15.15;;;10.52;;
63807;SDS011;49961;43.970;22.868;2022-12-29T03:35:22;15.38;;;10.93;;
63807;SDS011;49961;43.970;22.868;2022-12-29T03:36:30;15.52;;;10.70;;
63807;SDS011;49961;43.970;22.868;2022-12-29T03:37:37;14.40;;;11.10;;
63807;SDS011;49961;43.970;22.868;2022-12-29T03:38:45;15.45;;;11.32;;
63807;SDS011;49961;43.970;22.868;2022-12-29T03:39:50;14.25;;;10.98;;
63807;SDS011;49961;43.970;22.868;2022-12-29T03:40:57;14.67;;;10.53;;
63807;SDS011;49961;43.970;22.868;2022-12-29T03:42:05;16.67;;;11.00;;
63807;SDS011;49961;43.970;22.868;2022-12-29T03:43:09;18.52;;;11.40;;
63807;SDS011;49961;43.970;22.868;2022-12-29T03:44:12;25.75;;;10.68;;
63807;SDS011;49961;43.970;22.868;2022-12-29T03:45:13;19.00;;;11.10;;
63807;SDS011;49961;43.970;22.868;2022-12-29T03:46:14;26.10;;;10.83;;
63807;SDS011;49961;43.970;22.868;2022-12-29T03:47:14;17.43;;;10.70;;
63807;SDS011;49961;43.970;22.868;2022-12-29T03:48:15;17.27;;;11.85;;
63807;SDS011;49961;43.970;22.868;2022-12-29T03:49:15;17.17;;;11.60;;
63807;SDS011;49961;43.970;22.868;2022-12-29T03:50:16;13.67;;;10.90;;
63807;SDS011;49961;43.970;22.868;2022-12-29T03:51:16;16.10;;;11.17;;
63807;SDS011;49961;43.970;22.868;2022-12-29T03:52:17;17.13;;;11.33;;
63807;SDS011;49961;43.970;22.868;2022-12-29T03:53:17;16.33;;;10.57;;
63807;SDS011;49961;43.970;22.868;2022-12-29T03:54:18;18.40;;;11.57;;
63807;SDS011;49961;43.970;22.868;2022-12-29T03:55:18;16.53;;;11.30;;
63807;SDS011;49961;43.970;22.868;2022-12-29T03:56:19;15.77;;;11.33;;
63807;SDS011;49961;43.970;22.868;2022-12-29T03:57:19;15.63;;;11.67;;
63807;SDS011;49961;43.970;22.868;2022-12-29T03:58:20;14.50;;;10.80;;
63807;SDS011;49961;43.970;22.868;2022-12-29T03:59:20;15.37;;;11.30;;
63807;SDS011;49961;43.970;22.868;2022-12-29T04:00:21;14.03;;;11.70;;
63807;SDS011;49961;43.970;22.868;2022-12-29T04:01:21;14.97;;;11.43;;
63807;SDS011;49961;43.970;22.868;2022-12-29T04:02:22;16.23;;;11.73;;
63807;SDS011;49961;43.970;22.868;2022-12-29T04:03:23;15.05;;;11.27;;
63807;SDS011;49961;43.970;22.868;2022-12-29T04:04:24;14.80;;;10.30;;
63807;SDS011;49961;43.970;22.868;2022-12-29T04:05:24;14.80;;;10.43;;
63807;SDS011;49961;43.970;22.868;2022-12-29T04:06:25;15.80;;;11.10;;
63807;SDS011;49961;43.970;22.868;2022-12-29T04:07:25;19.10;;;11.07;;
63807;SDS011;49961;43.970;22.868;2022-12-29T04:08:25;20.30;;;12.50;;
63807;SDS011;49961;43.970;22.868;2022-12-29T04:09:26;17.50;;;10.80;;
63807;SDS011;49961;43.970;22.868;2022-12-29T04:10:26;16.97;;;11.83;;
63807;SDS011;49961;43.970;22.868;2022-12-29T04:11:27;15.50;;;11.40;;
63807;SDS011;49961;43.970;22.868;2022-12-29T04:12:27;17.10;;;11.77;;
63807;SDS011;49961;43.970;22.868;2022-12-29T04:13:28;15.37;;;11.90;;
63807;SDS011;49961;43.970;22.868;2022-12-29T04:14:28;15.17;;;12.03;;
63807;SDS011;49961;43.970;22.868;2022-12-29T04:15:28;17.03;;;11.97;;
63807;SDS011;49961;43.970;22.868;2022-12-29T04:16:29;15.87;;;11.87;;
63807;SDS011;49961;43.970;22.868;2022-12-29T04:17:29;18.13;;;12.07;;
63807;SDS011;49961;43.970;22.868;2022-12-29T04:18:30;16.90;;;12.23;;
63807;SDS011;49961;43.970;22.868;2022-12-29T04:19:30;17.30;;;12.43;;
63807;SDS011;49961;43.970;22.868;2022-12-29T04:20:30;17.23;;;12.33;;
63807;SDS011;49961;43.970;22.868;2022-12-29T04:21:50;18.60;;;13.23;;
63807;SDS011;49961;43.970;22.868;2022-12-29T04:22:57;16.00;;;12.37;;
63807;SDS011;49961;43.970;22.868;2022-12-29T04:24:01;18.13;;;12.32;;
63807;SDS011;49961;43.970;22.868;2022-12-29T04:25:01;15.47;;;12.43;;
63807;SDS011;49961;43.970;22.868;2022-12-29T04:26:02;17.47;;;12.83;;
63807;SDS011;49961;43.970;22.868;2022-12-29T04:27:02;16.80;;;13.57;;
63807;SDS011;49961;43.970;22.868;2022-12-29T04:28:03;18.73;;;11.67;;
63807;SDS011;49961;43.970;22.868;2022-12-29T04:29:03;18.60;;;12.73;;
63807;SDS011;49961;43.970;22.868;2022-12-29T04:30:04;18.00;;;12.27;;
63807;SDS011;49961;43.970;22.868;2022-12-29T04:31:05;20.02;;;13.50;;
63807;SDS011;49961;43.970;22.868;2022-12-29T04:32:05;19.10;;;13.37;;
63807;SDS011;49961;43.970;22.868;2022-12-29T04:33:06;18.97;;;11.83;;
63807;SDS011;49961;43.970;22.868;2022-12-29T04:34:06;17.10;;;11.47;;
63807;SDS011;49961;43.970;22.868;2022-12-29T04:35:07;19.13;;;12.97;;
63807;SDS011;49961;43.970;22.868;2022-12-29T04:36:08;16.70;;;12.80;;
63807;SDS011;49961;43.970;22.868;2022-12-29T04:37:08;17.97;;;12.77;;
63807;SDS011;49961;43.970;22.868;2022-12-29T04:38:09;19.20;;;11.80;;
63807;SDS011;49961;43.970;22.868;2022-12-29T04:39:10;14.07;;;10.93;;
63807;SDS011;49961;43.970;22.868;2022-12-29T04:40:10;15.83;;;11.40;;
63807;SDS011;49961;43.970;22.868;2022-12-29T04:41:11;20.05;;;11.88;;
63807;SDS011;49961;43.970;22.868;2022-12-29T04:42:12;13.53;;;10.60;;
63807;SDS011;49961;43.970;22.868;2022-12-29T04:43:12;16.93;;;11.50;;
63807;SDS011;49961;43.970;22.868;2022-12-29T04:44:13;17.60;;;10.10;;
63807;SDS011;49961;43.970;22.868;2022-12-29T04:45:14;18.77;;;10.77;;
63807;SDS011;49961;43.970;22.868;2022-12-29T04:46:14;18.07;;;11.53;;
63807;SDS011;49961;43.970;22.868;2022-12-29T04:47:15;17.83;;;11.40;;
63807;SDS011;49961;43.970;22.868;2022-12-29T04:48:15;16.83;;;11.03;;
63807;SDS011;49961;43.970;22.868;2022-12-29T04:49:16;24.47;;;11.20;;
63807;SDS011;49961;43.970;22.868;2022-12-29T04:50:16;22.30;;;11.53;;
63807;SDS011;49961;43.970;22.868;2022-12-29T04:51:17;14.23;;;10.43;;
63807;SDS011;49961;43.970;22.868;2022-12-29T04:52:17;14.80;;;9.80;;
63807;SDS011;49961;43.970;22.868;2022-12-29T04:53:17;14.13;;;9.87;;
63807;SDS011;49961;43.970;22.868;2022-12-29T04:54:18;17.30;;;9.63;;
63807;SDS011;49961;43.970;22.868;2022-12-29T04:55:18;16.27;;;10.30;;
63807;SDS011;49961;43.970;22.868;2022-12-29T04:56:19;19.07;;;10.53;;
63807;SDS011;49961;43.970;22.868;2022-12-29T04:57:19;18.10;;;10.80;;
63807;SDS011;49961;43.970;22.868;2022-12-29T04:58:20;17.73;;;10.67;;
63807;SDS011;49961;43.970;22.868;2022-12-29T04:59:20;13.87;;;9.57;;
63807;SDS011;49961;43.970;22.868;2022-12-29T05:00:21;21.03;;;10.30;;
63807;SDS011;49961;43.970;22.868;2022-12-29T05:01:21;15.50;;;10.77;;
63807;SDS011;49961;43.970;22.868;2022-12-29T05:02:22;14.33;;;11.17;;
63807;SDS011;49961;43.970;22.868;2022-12-29T05:03:22;17.30;;;10.30;;
63807;SDS011;49961;43.970;22.868;2022-12-29T05:04:23;18.23;;;10.53;;
63807;SDS011;49961;43.970;22.868;2022-12-29T05:05:23;18.03;;;9.83;;
63807;SDS011;49961;43.970;22.868;2022-12-29T05:06:24;15.73;;;11.03;;
63807;SDS011;49961;43.970;22.868;2022-12-29T05:07:24;14.00;;;10.30;;
63807;SDS011;49961;43.970;22.868;2022-12-29T05:08:25;16.63;;;10.97;;
63807;SDS011;49961;43.970;22.868;2022-12-29T05:09:25;15.97;;;10.60;;
63807;SDS011;49961;43.970;22.868;2022-12-29T05:10:26;15.17;;;10.93;;
63807;SDS011;49961;43.970;22.868;2022-12-29T05:11:26;15.70;;;10.60;;
63807;SDS011;49961;43.970;22.868;2022-12-29T05:12:29;16.70;;;11.00;;
63807;SDS011;49961;43.970;22.868;2022-12-29T05:13:33;16.25;;;10.70;;
63807;SDS011;49961;43.970;22.868;2022-12-29T05:14:34;19.50;;;10.63;;
63807;SDS011;49961;43.970;22.868;2022-12-29T05:15:34;16.23;;;10.60;;
63807;SDS011;49961;43.970;22.868;2022-12-29T05:16:35;15.17;;;10.87;;
63807;SDS011;49961;43.970;22.868;2022-12-29T05:19:14;16.90;;;10.35;;
63807;SDS011;49961;43.970;22.868;2022-12-29T05:20:15;15.17;;;9.73;;
63807;SDS011;49961;43.970;22.868;2022-12-29T05:21:15;16.57;;;10.90;;
63807;SDS011;49961;43.970;22.868;2022-12-29T05:22:16;13.43;;;10.70;;
63807;SDS011;49961;43.970;22.868;2022-12-29T05:23:16;18.00;;;10.90;;
63807;SDS011;49961;43.970;22.868;2022-12-29T05:24:17;13.27;;;9.50;;
63807;SDS011;49961;43.970;22.868;2022-12-29T05:25:17;18.17;;;11.80;;
63807;SDS011;49961;43.970;22.868;2022-12-29T05:26:18;20.73;;;13.77;;
63807;SDS011;49961;43.970;22.868;2022-12-29T05:27:18;16.87;;;11.43;;
63807;SDS011;49961;43.970;22.868;2022-12-29T05:28:18;21.80;;;11.30;;
63807;SDS011;49961;43.970;22.868;2022-12-29T05:29:19;18.57;;;11.03;;
63807;SDS011;49961;43.970;22.868;2022-12-29T05:30:19;25.93;;;15.30;;
63807;SDS011;49961;43.970;22.868;2022-12-29T05:31:20;17.97;;;11.33;;
63807;SDS011;49961;43.970;22.868;2022-12-29T05:32:20;16.00;;;12.03;;
63807;SDS011;49961;43.970;22.868;2022-12-29T05:33:21;20.57;;;14.40;;
63807;SDS011;49961;43.970;22.868;2022-12-29T05:34:21;21.37;;;14.13;;
63807;SDS011;49961;43.970;22.868;2022-12-29T05:35:22;18.53;;;12.53;;
63807;SDS011;49961;43.970;22.868;2022-12-29T05:36:22;22.17;;;14.67;;
63807;SDS011;49961;43.970;22.868;2022-12-29T05:37:23;22.80;;;13.97;;
63807;SDS011;49961;43.970;22.868;2022-12-29T05:38:23;22.20;;;14.87;;
63807;SDS011;49961;43.970;22.868;2022-12-29T05:39:24;21.87;;;13.87;;
63807;SDS011;49961;43.970;22.868;2022-12-29T05:40:24;23.07;;;15.13;;
63807;SDS011;49961;43.970;22.868;2022-12-29T05:41:24;28.40;;;18.17;;
63807;SDS011;49961;43.970;22.868;2022-12-29T05:42:25;29.60;;;18.00;;
63807;SDS011;49961;43.970;22.868;2022-12-29T05:43:26;23.33;;;14.40;;
63807;SDS011;49961;43.970;22.868;2022-12-29T05:44:26;20.57;;;13.57;;
63807;SDS011;49961;43.970;22.868;2022-12-29T05:45:27;25.37;;;15.00;;
63807;SDS011;49961;43.970;22.868;2022-12-29T05:46:27;25.53;;;14.40;;
63807;SDS011;49961;43.970;22.868;2022-12-29T05:47:28;20.07;;;14.13;;
63807;SDS011;49961;43.970;22.868;2022-12-29T05:48:28;25.53;;;15.60;;
63807;SDS011;49961;43.970;22.868;2022-12-29T05:49:29;21.80;;;14.73;;
63807;SDS011;49961;43.970;22.868;2022-12-29T05:50:29;31.87;;;17.50;;
63807;SDS011;49961;43.970;22.868;2022-12-29T05:53:26;27.08;;;15.43;;
63807;SDS011;49961;43.970;22.868;2022-12-29T05:54:27;29.50;;;16.17;;
63807;SDS011;49961;43.970;22.868;2022-12-29T05:55:27;27.83;;;16.23;;
63807;SDS011;49961;43.970;22.868;2022-12-29T05:56:27;26.23;;;17.43;;
63807;SDS011;49961;43.970;22.868;2022-12-29T05:57:28;27.87;;;17.47;;
63807;SDS011;49961;43.970;22.868;2022-12-29T05:58:28;31.07;;;19.10;;
63807;SDS011;49961;43.970;22.868;2022-12-29T05:59:29;38.37;;;22.07;;
63807;SDS011;49961;43.970;22.868;2022-12-29T06:00:29;38.27;;;22.23;;
63807;SDS011;49961;43.970;22.868;2022-12-29T06:01:30;32.07;;;20.97;;
63807;SDS011;49961;43.970;22.868;2022-12-29T06:02:30;37.00;;;20.83;;
63807;SDS011;49961;43.970;22.868;2022-12-29T06:03:31;29.47;;;19.13;;
63807;SDS011;49961;43.970;22.868;2022-12-29T06:04:31;29.70;;;17.50;;
63807;SDS011;49961;43.970;22.868;2022-12-29T06:05:31;24.63;;;16.20;;
63807;SDS011;49961;43.970;22.868;2022-12-29T06:06:32;28.53;;;18.20;;
63807;SDS011;49961;43.970;22.868;2022-12-29T06:07:32;31.20;;;19.23;;
63807;SDS011;49961;43.970;22.868;2022-12-29T06:08:33;29.17;;;19.63;;
63807;SDS011;49961;43.970;22.868;2022-12-29T06:09:33;40.97;;;22.90;;
63807;SDS011;49961;43.970;22.868;2022-12-29T06:10:34;27.90;;;18.37;;
63807;SDS011;49961;43.970;22.868;2022-12-29T06:11:34;37.90;;;19.40;;
63807;SDS011;49961;43.970;22.868;2022-12-29T06:12:35;26.67;;;19.30;;
63807;SDS011;49961;43.970;22.868;2022-12-29T06:13:35;28.73;;;19.77;;
63807;SDS011;49961;43.970;22.868;2022-12-29T06:14:36;33.60;;;22.23;;
63807;SDS011;49961;43.970;22.868;2022-12-29T06:15:36;31.03;;;20.60;;
63807;SDS011;49961;43.970;22.868;2022-12-29T06:16:37;30.93;;;21.30;;
63807;SDS011;49961;43.970;22.868;2022-12-29T06:17:37;27.83;;;21.30;;
63807;SDS011;49961;43.970;22.868;2022-12-29T06:18:38;32.73;;;20.63;;
63807;SDS011;49961;43.970;22.868;2022-12-29T06:19:38;28.83;;;19.97;;
63807;SDS011;49961;43.970;22.868;2022-12-29T06:20:39;31.90;;;21.07;;
63807;SDS011;49961;43.970;22.868;2022-12-29T06:21:39;30.30;;;21.87;;
63807;SDS011;49961;43.970;22.868;2022-12-29T06:22:40;28.97;;;20.73;;
63807;SDS011;49961;43.970;22.868;2022-12-29T06:23:40;29.73;;;21.13;;
63807;SDS011;49961;43.970;22.868;2022-12-29T06:24:41;30.80;;;22.07;;
63807;SDS011;49961;43.970;22.868;2022-12-29T06:25:41;30.07;;;21.43;;
63807;SDS011;49961;43.970;22.868;2022-12-29T06:26:41;33.80;;;21.33;;
63807;SDS011;49961;43.970;22.868;2022-12-29T06:27:42;36.70;;;21.97;;
63807;SDS011;49961;43.970;22.868;2022-12-29T06:28:43;34.45;;;21.98;;
63807;SDS011;49961;43.970;22.868;2022-12-29T06:29:43;38.63;;;21.43;;
63807;SDS011;49961;43.970;22.868;2022-12-29T06:30:44;40.97;;;21.50;;
63807;SDS011;49961;43.970;22.868;2022-12-29T06:31:45;36.70;;;22.67;;
63807;SDS011;49961;43.970;22.868;2022-12-29T06:32:46;36.10;;;21.23;;
63807;SDS011;49961;43.970;22.868;2022-12-29T06:33:47;37.90;;;22.27;;
63807;SDS011;49961;43.970;22.868;2022-12-29T06:34:47;37.07;;;21.87;;
63807;SDS011;49961;43.970;22.868;2022-12-29T06:35:48;34.30;;;20.27;;
63807;SDS011;49961;43.970;22.868;2022-12-29T06:36:48;32.87;;;20.43;;
63807;SDS011;49961;43.970;22.868;2022-12-29T06:37:49;31.80;;;19.53;;
63807;SDS011;49961;43.970;22.868;2022-12-29T06:38:49;30.10;;;19.37;;
63807;SDS011;49961;43.970;22.868;2022-12-29T06:39:52;29.58;;;20.40;;
63807;SDS011;49961;43.970;22.868;2022-12-29T06:40:52;36.67;;;19.90;;
63807;SDS011;49961;43.970;22.868;2022-12-29T06:41:53;34.67;;;21.27;;
63807;SDS011;49961;43.970;22.868;2022-12-29T06:42:54;36.90;;;20.75;;
63807;SDS011;49961;43.970;22.868;2022-12-29T06:43:54;36.93;;;21.20;;